createdAt,value
2024-01-01T00:00:57.218Z,20.70
2024-01-01T00:10:59.383Z,10.40
2024-01-01T00:21:03.360Z,8.70
2024-01-01T00:31:05.553Z,7.03
2024-01-01T00:41:07.774Z,6.80
2024-01-01T00:51:09.873Z,5.77
2024-01-01T01:01:12.050Z,5.00
2024-01-01T01:11:14.159Z,4.30
2024-01-01T01:28:23.474Z,5.00
2024-01-01T01:38:25.560Z,5.73
2024-01-01T01:48:28.734Z,7.30
2024-01-01T01:58:31.510Z,9.40
2024-01-01T02:08:33.999Z,9.53
2024-01-01T02:18:36.193Z,11.17
2024-01-01T02:28:38.389Z,11.37
2024-01-01T02:38:40.552Z,12.13
2024-01-01T02:48:42.744Z,12.53
2024-01-01T02:58:45.489Z,11.67
2024-01-01T03:08:47.617Z,10.73
2024-01-01T03:18:49.767Z,10.33
2024-01-01T03:28:51.927Z,10.03
2024-01-01T03:38:54.068Z,11.90
2024-01-01T03:48:56.217Z,11.73
2024-01-01T03:58:58.376Z,11.10
2024-01-01T04:09:00.530Z,11.10
2024-01-01T04:19:02.733Z,11.70
2024-01-01T04:29:04.962Z,10.80
2024-01-01T04:39:07.118Z,10.00
2024-01-01T04:49:09.239Z,9.30
2024-01-01T04:59:11.593Z,8.00
2024-01-01T05:09:13.751Z,7.87
2024-01-01T05:19:15.860Z,6.60
2024-01-01T05:29:17.986Z,4.83
2024-01-01T05:39:20.173Z,4.57
2024-01-01T05:49:22.924Z,4.70
2024-01-01T05:59:25.046Z,4.93
2024-01-01T06:09:27.436Z,4.90
2024-01-01T06:19:29.892Z,4.80
2024-01-01T06:29:32.054Z,4.30
2024-01-01T06:39:34.113Z,2.90
2024-01-01T06:49:36.446Z,2.70
2024-01-01T06:59:38.684Z,4.33
2024-01-01T07:09:40.808Z,1.93
2024-01-01T07:19:43.805Z,2.00
2024-01-01T07:29:45.909Z,3.30
2024-01-01T07:39:47.974Z,2.03
2024-01-01T07:49:50.066Z,2.17
2024-01-01T07:59:56.499Z,1.90
2024-01-01T08:09:58.998Z,2.33
2024-01-01T08:20:01.228Z,2.03
2024-01-01T08:30:04.722Z,2.57
2024-01-01T08:40:07.290Z,2.00
2024-01-01T08:50:09.718Z,2.50
2024-01-01T09:00:12.878Z,2.60
2024-01-01T09:10:18.088Z,1.77
2024-01-01T09:20:20.316Z,2.70
2024-01-01T09:30:22.593Z,2.07
2024-01-01T09:40:24.745Z,2.00
2024-01-01T09:50:26.893Z,2.00
2024-01-01T10:00:29.427Z,1.60
2024-01-01T10:10:31.544Z,2.27
2024-01-01T10:20:33.642Z,2.27
2024-01-01T10:30:35.823Z,2.00
2024-01-01T10:40:37.989Z,2.47
2024-01-01T10:50:47.788Z,2.00
2024-01-01T11:01:00.688Z,2.33
2024-01-01T11:11:34.003Z,1.80
2024-01-01T11:21:36.512Z,1.70
2024-01-01T11:31:38.576Z,1.80
2024-01-01T11:41:40.889Z,1.80
2024-01-01T11:51:56.936Z,1.53
2024-01-01T12:01:59.656Z,1.60
2024-01-01T12:22:23.203Z,1.93
2024-01-01T12:32:25.440Z,1.33
2024-01-01T12:42:27.585Z,1.63
2024-01-01T12:52:29.737Z,2.00
2024-01-01T13:02:31.852Z,1.70
2024-01-01T13:12:33.949Z,1.70
2024-01-01T13:22:36.011Z,1.60
2024-01-01T13:32:39.922Z,1.63
2024-01-01T13:42:42.044Z,1.90
2024-01-01T13:52:44.526Z,1.87
2024-01-01T14:02:46.672Z,2.00
2024-01-01T14:12:49.054Z,1.80
2024-01-01T14:22:51.194Z,2.00
2024-01-01T14:32:55.149Z,1.80
2024-01-01T14:42:57.414Z,1.77
2024-01-01T14:52:59.515Z,2.20
2024-01-01T15:03:03.342Z,6.30
2024-01-01T15:13:06.121Z,2.73
2024-01-01T15:23:08.665Z,2.77
2024-01-01T15:33:11.654Z,2.00
2024-01-01T15:43:14.281Z,2.10
2024-01-01T15:53:16.475Z,2.70
2024-01-01T16:03:18.641Z,2.70
2024-01-01T16:13:21.418Z,6.20
2024-01-01T16:23:24.453Z,3.40
2024-01-01T16:33:26.908Z,3.40
2024-01-01T16:43:29.060Z,3.20
2024-01-01T16:53:31.153Z,2.60
2024-01-01T17:03:33.297Z,3.13
2024-01-01T17:13:35.153Z,3.75
2024-01-01T17:23:37.471Z,3.30
2024-01-01T17:33:40.770Z,2.97
2024-01-01T17:43:42.947Z,3.27
2024-01-01T17:53:45.229Z,3.10
2024-01-01T18:03:47.567Z,2.80
2024-01-01T18:13:49.847Z,2.63
2024-01-01T18:23:53.286Z,3.27
2024-01-01T18:33:55.446Z,3.17
2024-01-01T18:43:57.656Z,3.47
2024-01-01T18:53:59.788Z,4.00
2024-01-01T19:04:06.817Z,3.00
2024-01-01T19:14:15.923Z,3.40
2024-01-01T19:24:18.044Z,3.33
2024-01-01T19:34:20.139Z,3.33
2024-01-01T19:44:22.276Z,2.90
2024-01-01T19:54:24.750Z,2.47
2024-01-01T20:04:26.908Z,3.07
2024-01-01T20:14:29.042Z,3.20
2024-01-01T20:24:31.173Z,3.20
2024-01-01T20:34:33.573Z,2.87
2024-01-01T20:44:35.853Z,2.53
2024-01-01T20:54:38.139Z,2.60
2024-01-01T21:04:42.018Z,2.60
2024-01-01T21:14:44.173Z,2.27
2024-01-01T21:24:47.902Z,2.20
2024-01-01T21:34:50.121Z,2.23
2024-01-01T21:44:55.681Z,2.20
2024-01-01T21:54:58.176Z,2.20
2024-01-01T22:05:00.525Z,2.50
2024-01-01T22:15:02.678Z,2.97
2024-01-01T22:25:05.176Z,2.40
2024-01-01T22:35:07.633Z,2.70
2024-01-01T22:45:09.838Z,2.07
2024-01-01T22:55:13.003Z,1.93
2024-01-01T23:05:21.838Z,2.23
2024-01-01T23:15:26.374Z,2.20
2024-01-01T23:25:30.094Z,1.83
2024-01-01T23:35:35.093Z,2.20
2024-01-01T23:45:37.213Z,1.87
2024-01-01T23:55:39.308Z,2.20
